Time;durP1;ratioP1;P1;durP2;ratioP2;P2;SDS_P1;SDS_P2;PMS_P1;PMS_P2;Temp;Humidity;BMP_temperature;BMP_pressure;BME280_temperature;BME280_humidity;BME280_pressure;Samples;Min_cycle;Max_cycle;Signal;HPM_P1;HPM_P2
2022/08/08 00:01:29;;;;;;;8.05;3.03;;;12.80;99.90;;;;;;5031011;28;20041;-72
2022/08/08 00:04:16;;;;;;;5.72;2.50;;;12.80;99.90;;;;;;5023435;28;20052;-71
2022/08/08 00:07:09;;;;;;;5.65;2.08;;;12.80;99.90;;;;;;5030065;28;20559;-72
2022/08/08 00:10:11;;;;;;;8.23;2.47;;;12.70;99.90;;;;;;5031367;28;20546;-72
2022/08/08 00:13:00;;;;;;;6.90;2.50;;;12.70;99.90;;;;;;5029680;28;20065;-72
2022/08/08 00:15:35;;;;;;;6.00;2.80;;;12.70;99.90;;;;;;5019595;28;20045;-72
2022/08/08 00:18:10;;;;;;;6.88;2.67;;;12.70;99.90;;;;;;5033379;28;20046;-72
2022/08/08 00:20:48;;;;;;;6.05;3.00;;;12.70;99.90;;;;;;5038340;28;20515;-72
2022/08/08 00:23:35;;;;;;;7.07;2.80;;;12.60;99.90;;;;;;5038059;28;20041;-73
2022/08/08 00:26:06;;;;;;;6.97;3.08;;;12.60;99.90;;;;;;5037493;28;20045;-72
2022/08/08 00:28:49;;;;;;;6.32;3.05;;;12.60;99.90;;;;;;5036088;28;20834;-72
2022/08/08 00:31:23;;;;;;;8.02;3.50;;;12.60;99.90;;;;;;5041236;28;20426;-72
2022/08/08 00:37:15;;;;;;;5.63;3.03;;;12.50;99.90;;;;;;5043713;28;20053;-73
2022/08/08 00:39:50;;;;;;;;;;;12.50;99.90;;;;;;5030683;28;20418;-73
2022/08/08 00:42:39;;;;;;;7.22;3.15;;;12.50;99.90;;;;;;5029206;28;19936;-73
2022/08/08 00:45:24;;;;;;;8.68;3.38;;;12.50;99.90;;;;;;5038079;28;20045;-73
2022/08/08 00:48:35;;;;;;;7.15;3.45;;;12.50;99.90;;;;;;5022161;28;20048;-73
2022/08/08 00:51:34;;;;;;;7.70;3.90;;;12.50;99.90;;;;;;5024159;28;20068;-73
2022/08/08 00:54:21;;;;;;;6.63;3.78;;;12.50;99.90;;;;;;5030335;28;20108;-72
2022/08/08 00:57:15;;;;;;;9.38;4.28;;;12.50;99.90;;;;;;5012621;28;20467;-72
2022/08/08 00:59:55;;;;;;;8.70;4.05;;;12.40;99.90;;;;;;5036774;28;20037;-72
2022/08/08 01:02:56;;;;;;;6.60;3.83;;;12.40;99.90;;;;;;5032270;28;20045;-73
2022/08/08 01:05:40;;;;;;;9.60;4.25;;;12.40;99.90;;;;;;5027336;28;20057;-73
2022/08/08 01:08:25;;;;;;;7.65;4.00;;;12.40;99.90;;;;;;5030967;28;20052;-72
2022/08/08 01:11:13;;;;;;;6.88;3.88;;;12.30;99.90;;;;;;5039113;28;20375;-73
2022/08/08 01:14:07;;;;;;;9.80;4.00;;;12.30;99.90;;;;;;5017019;28;20053;-72
2022/08/08 01:17:07;;;;;;;7.60;4.68;;;12.30;99.90;;;;;;5027319;28;20566;-73
2022/08/08 01:20:24;;;;;;;7.50;4.15;;;12.30;99.90;;;;;;5036415;28;20048;-73
2022/08/08 01:23:11;;;;;;;8.88;4.70;;;12.30;99.90;;;;;;5009290;28;20401;-73
2022/08/08 01:25:52;;;;;;;8.10;4.88;;;12.30;99.90;;;;;;5040490;28;20428;-73
2022/08/08 01:28:53;;;;;;;9.95;4.28;;;12.30;99.90;;;;;;5029213;28;20037;-73
2022/08/08 01:31:37;;;;;;;8.50;4.57;;;12.30;99.90;;;;;;5014482;28;20128;-73
2022/08/08 01:34:28;;;;;;;6.97;4.45;;;12.30;99.90;;;;;;5033202;28;20065;-73
2022/08/08 01:37:16;;;;;;;8.57;4.93;;;12.20;99.90;;;;;;5035974;28;20506;-73
2022/08/08 01:40:22;;;;;;;7.18;4.47;;;12.20;99.90;;;;;;5029294;28;20522;-73
2022/08/08 01:43:00;;;;;;;8.35;4.40;;;12.20;99.90;;;;;;5026235;28;21301;-73
2022/08/08 01:45:53;;;;;;;8.85;5.07;;;12.20;99.90;;;;;;5028268;28;20041;-73
2022/08/08 01:49:04;;;;;;;8.45;4.80;;;12.20;99.90;;;;;;5026632;28;20183;-72
2022/08/08 01:51:57;;;;;;;7.80;4.80;;;12.20;99.90;;;;;;5010935;28;20129;-73
2022/08/08 01:54:56;;;;;;;11.35;5.05;;;12.10;99.90;;;;;;5011298;28;20044;-74
2022/08/08 01:57:52;;;;;;;10.30;4.90;;;12.10;99.90;;;;;;5027173;28;20169;-74
2022/08/08 02:00:25;;;;;;;10.40;5.15;;;12.10;99.90;;;;;;5038109;28;20116;-73
2022/08/08 02:03:05;;;;;;;9.80;4.97;;;12.10;99.90;;;;;;5030536;28;20056;-74
2022/08/08 02:05:53;;;;;;;8.40;4.47;;;12.10;99.90;;;;;;5031858;28;20053;-74
2022/08/08 02:08:33;;;;;;;9.35;4.97;;;12.10;99.90;;;;;;5026196;28;20067;-73
2022/08/08 02:11:17;;;;;;;7.03;4.63;;;12.10;99.90;;;;;;5031871;28;20073;-72
2022/08/08 02:14:04;;;;;;;9.35;4.88;;;12.10;99.90;;;;;;5032174;28;20203;-74
2022/08/08 02:17:08;;;;;;;7.65;4.50;;;12.20;99.90;;;;;;5030264;28;20052;-73
2022/08/08 02:20:24;;;;;;;10.63;5.18;;;12.20;99.90;;;;;;5032461;28;20059;-74
2022/08/08 02:23:12;;;;;;;10.38;5.03;;;12.20;99.90;;;;;;5001360;28;20131;-74
2022/08/08 02:26:08;;;;;;;10.23;4.20;;;12.60;99.90;;;;;;4999731;28;20057;-74
2022/08/08 02:29:21;;;;;;;8.15;4.30;;;12.30;99.90;;;;;;5026051;28;20053;-73
2022/08/08 02:32:14;;;;;;;8.60;4.30;;;12.30;99.90;;;;;;5040928;28;20044;-73
2022/08/08 02:35:02;;;;;;;9.73;4.80;;;12.30;99.90;;;;;;5037931;28;20037;-73
2022/08/08 02:37:52;;;;;;;7.95;4.57;;;12.30;99.90;;;;;;5041636;28;20533;-73
2022/08/08 02:40:51;;;;;;;8.43;4.88;;;12.30;99.90;;;;;;5019384;28;20044;-73
2022/08/08 02:43:34;;;;;;;9.60;5.00;;;12.30;99.90;;;;;;5034332;28;20048;-73
2022/08/08 02:46:25;;;;;;;9.82;4.50;;;12.40;99.90;;;;;;5034011;28;20144;-73
2022/08/08 02:49:25;;;;;;;9.90;5.05;;;12.40;99.90;;;;;;5036858;28;20053;-73
2022/08/08 02:52:27;;;;;;;9.75;4.30;;;12.30;99.90;;;;;;5012270;28;20088;-73
2022/08/08 02:55:11;;;;;;;10.70;4.85;;;12.30;99.90;;;;;;5037325;28;20079;-73
2022/08/08 02:58:05;;;;;;;7.40;5.15;;;12.30;99.90;;;;;;5016768;28;20044;-73
2022/08/08 03:00:45;;;;;;;10.82;4.82;;;12.30;99.90;;;;;;5032861;28;20099;-73
2022/08/08 03:03:49;;;;;;;7.75;4.50;;;12.20;99.90;;;;;;5052102;28;20053;-74
2022/08/08 03:06:45;;;;;;;8.75;4.82;;;12.20;99.90;;;;;;5037883;28;20055;-74
2022/08/08 03:09:49;;;;;;;9.10;4.53;;;12.20;99.90;;;;;;5037603;28;20508;-73
2022/08/08 03:12:33;;;;;;;8.07;4.13;;;12.20;99.90;;;;;;5035952;28;20118;-74
2022/08/08 03:15:24;;;;;;;12.30;4.63;;;12.20;99.90;;;;;;5038070;28;20080;-72
2022/08/08 03:18:27;;;;;;;11.50;5.07;;;12.20;99.90;;;;;;5038267;28;20127;-73
2022/08/08 03:20:52;;;;;;;8.13;4.65;;;12.20;99.90;;;;;;5035026;28;20041;-73
2022/08/08 03:23:21;;;;;;;9.07;4.95;;;12.20;99.90;;;;;;5044874;28;20086;-73
2022/08/08 03:25:48;;;;;;;10.35;5.38;;;12.40;99.90;;;;;;5034230;28;20123;-72
2022/08/08 03:28:20;;;;;;;9.55;4.47;;;12.30;99.90;;;;;;5043912;28;20092;-73
2022/08/08 03:30:46;;;;;;;10.60;5.05;;;12.30;99.90;;;;;;5038086;28;20045;-73
2022/08/08 03:33:18;;;;;;;8.00;4.97;;;12.40;99.90;;;;;;5033834;28;20049;-73
2022/08/08 03:35:47;;;;;;;8.50;5.30;;;12.40;99.90;;;;;;5032731;28;20417;-73
2022/08/08 03:38:14;;;;;;;12.00;5.10;;;12.40;99.90;;;;;;5019697;28;20041;-74
2022/08/08 03:40:40;;;;;;;9.25;5.00;;;12.40;99.90;;;;;;5030903;28;20116;-74
2022/08/08 03:43:07;;;;;;;8.80;4.53;;;12.40;99.90;;;;;;5031276;28;20041;-74
2022/08/08 03:45:33;;;;;;;9.98;4.95;;;12.40;99.90;;;;;;5031428;28;20032;-73
2022/08/08 03:48:07;;;;;;;7.65;5.32;;;12.40;99.90;;;;;;5034850;28;20049;-74
2022/08/08 03:50:46;;;;;;;9.45;5.35;;;12.50;99.90;;;;;;5038814;28;20131;-74
2022/08/08 03:53:15;;;;;;;11.27;5.22;;;12.50;99.90;;;;;;5022747;28;20119;-74
2022/08/08 03:55:43;;;;;;;10.10;5.38;;;12.50;99.90;;;;;;5033985;28;20395;-74
2022/08/08 03:58:15;;;;;;;10.32;5.05;;;12.50;99.90;;;;;;5015771;28;20040;-75
2022/08/08 04:00:41;;;;;;;11.38;5.60;;;12.50;99.90;;;;;;5032093;28;20055;-74
2022/08/08 04:03:07;;;;;;;10.32;5.10;;;12.50;99.90;;;;;;5029151;28;20049;-74
2022/08/08 04:05:37;;;;;;;10.60;4.97;;;12.60;99.90;;;;;;5031467;28;20674;-74
2022/08/08 04:08:05;;;;;;;10.00;4.70;;;12.60;99.90;;;;;;5035882;28;20063;-74
2022/08/08 04:10:32;;;;;;;12.52;6.10;;;12.60;99.90;;;;;;5038259;28;20049;-74
2022/08/08 04:12:59;;;;;;;10.30;5.18;;;12.70;99.90;;;;;;5026648;28;20457;-74
2022/08/08 04:15:25;;;;;;;9.30;5.22;;;12.60;99.90;;;;;;5035231;28;20383;-74
2022/08/08 04:17:53;;;;;;;16.13;5.32;;;12.80;99.90;;;;;;5029381;28;20083;-74
2022/08/08 04:20:19;;;;;;;12.27;5.65;;;12.70;99.90;;;;;;5032880;28;20044;-73
2022/08/08 04:22:45;;;;;;;11.57;5.45;;;12.70;99.90;;;;;;5017250;28;20036;-74
2022/08/08 04:25:11;;;;;;;13.13;5.20;;;12.70;99.90;;;;;;5041182;28;20056;-74
2022/08/08 04:27:37;;;;;;;9.45;4.82;;;12.70;99.90;;;;;;5039743;28;20041;-73
2022/08/08 04:30:05;;;;;;;9.93;4.63;;;12.70;99.90;;;;;;5027181;28;20052;-74
2022/08/08 04:32:31;;;;;;;9.93;5.43;;;12.80;99.90;;;;;;5033965;28;20050;-74
2022/08/08 04:34:56;;;;;;;11.52;5.82;;;12.80;99.90;;;;;;5029012;28;20045;-74
2022/08/08 04:37:22;;;;;;;11.20;5.50;;;12.80;99.90;;;;;;5028969;28;20041;-74
2022/08/08 04:39:48;;;;;;;13.35;5.78;;;13.10;99.90;;;;;;5036523;28;20072;-74
2022/08/08 04:42:13;;;;;;;11.38;4.97;;;13.20;99.90;;;;;;5038528;28;20041;-74
2022/08/08 04:44:39;;;;;;;14.45;5.65;;;13.10;99.90;;;;;;5031118;28;20049;-74
2022/08/08 04:47:06;;;;;;;10.15;6.07;;;13.20;99.90;;;;;;5035193;28;20380;-74
2022/08/08 04:49:31;;;;;;;12.40;5.38;;;13.20;99.90;;;;;;5029774;28;20071;-74
2022/08/08 04:51:57;;;;;;;12.98;5.32;;;13.30;99.90;;;;;;5032068;28;20041;-74
2022/08/08 04:54:23;;;;;;;11.68;5.78;;;13.70;99.90;;;;;;5031862;28;20033;-73
2022/08/08 04:56:49;;;;;;;8.48;5.30;;;14.50;99.90;;;;;;5029643;28;20040;-74
2022/08/08 04:59:14;;;;;;;9.32;5.18;;;15.00;99.90;;;;;;5035362;28;20514;-74
2022/08/08 05:01:40;;;;;;;10.23;5.10;;;15.40;99.90;;;;;;5026907;28;20634;-74
2022/08/08 05:04:06;;;;;;;10.88;4.72;;;15.80;99.90;;;;;;5027756;28;20045;-74
2022/08/08 05:06:31;;;;;;;12.68;4.55;;;15.70;99.90;;;;;;5034361;28;20041;-74
2022/08/08 05:08:58;;;;;;;10.27;4.75;;;15.60;99.90;;;;;;5039323;28;20124;-74
2022/08/08 05:11:24;;;;;;;11.20;4.45;;;15.40;99.90;;;;;;5020482;28;20520;-74
2022/08/08 05:13:50;;;;;;;9.25;4.38;;;15.20;99.90;;;;;;5029829;28;20489;-74
2022/08/08 05:16:16;;;;;;;12.63;4.70;;;15.10;99.90;;;;;;5033407;28;20077;-74
2022/08/08 05:18:41;;;;;;;8.57;4.13;;;15.00;99.90;;;;;;5032328;28;20045;-74
2022/08/08 05:21:10;;;;;;;9.65;4.80;;;14.90;99.90;;;;;;5024701;28;20044;-73
2022/08/08 05:23:35;;;;;;;10.30;5.07;;;14.80;99.90;;;;;;5020163;28;20509;-73
2022/08/08 05:26:02;;;;;;;13.07;5.38;;;14.80;99.90;;;;;;5023915;28;20072;-73
2022/08/08 05:28:28;;;;;;;9.18;5.20;;;14.70;99.90;;;;;;5025347;28;20037;-74
2022/08/08 05:30:54;;;;;;;12.65;5.30;;;14.70;99.90;;;;;;5031950;28;20057;-73
2022/08/08 05:33:19;;;;;;;11.70;4.72;;;14.60;99.90;;;;;;5021390;28;20406;-75
2022/08/08 05:35:46;;;;;;;11.93;5.35;;;14.60;99.90;;;;;;5023372;28;20412;-73
2022/08/08 05:38:17;;;;;;;10.38;5.30;;;14.60;99.90;;;;;;5023410;28;20481;-73
2022/08/08 05:40:50;;;;;;;12.07;4.85;;;14.60;99.90;;;;;;5025802;28;20053;-73
2022/08/08 05:43:27;;;;;;;8.63;4.38;;;14.70;99.90;;;;;;5037218;28;20049;-73
2022/08/08 05:45:59;;;;;;;12.00;5.05;;;14.70;99.90;;;;;;5011095;28;20045;-73
2022/08/08 05:48:25;;;;;;;10.02;4.97;;;14.70;99.90;;;;;;5040019;28;20481;-74
2022/08/08 05:50:54;;;;;;;12.57;5.63;;;14.70;99.90;;;;;;5028012;28;20132;-73
2022/08/08 05:53:27;;;;;;;13.32;5.05;;;14.80;99.90;;;;;;5040390;28;20048;-73
2022/08/08 05:55:55;;;;;;;9.43;5.22;;;14.80;99.90;;;;;;5022401;28;20041;-74
2022/08/08 05:58:27;;;;;;;8.73;4.72;;;14.90;99.90;;;;;;5022955;28;20531;-73
2022/08/08 06:00:55;;;;;;;15.98;6.28;;;15.00;99.90;;;;;;5024010;28;20146;-73
2022/08/08 06:03:22;;;;;;;9.82;5.57;;;15.10;99.90;;;;;;5029456;28;20033;-73
2022/08/08 06:05:49;;;;;;;14.00;5.50;;;15.20;99.90;;;;;;5021421;28;20040;-73
2022/08/08 06:08:26;;;;;;;15.48;5.28;;;15.30;99.90;;;;;;5008078;28;20107;-73
2022/08/08 06:10:57;;;;;;;16.75;5.18;;;15.50;99.90;;;;;;5023856;28;20049;-74
2022/08/08 06:13:27;;;;;;;9.32;4.97;;;15.70;99.90;;;;;;5036821;28;20335;-75
2022/08/08 06:15:55;;;;;;;9.98;4.68;;;15.90;99.90;;;;;;5026293;28;20537;-75
2022/08/08 06:18:23;;;;;;;13.00;4.88;;;16.10;99.90;;;;;;5014325;28;20041;-74
2022/08/08 06:20:54;;;;;;;10.38;5.05;;;16.20;99.90;;;;;;5020768;28;20061;-75
2022/08/08 06:23:20;;;;;;;9.83;5.00;;;16.30;99.90;;;;;;5025128;28;20045;-75
2022/08/08 06:25:56;;;;;;;10.35;4.55;;;16.40;99.90;;;;;;5026214;28;20310;-75
2022/08/08 06:28:30;;;;;;;10.02;4.63;;;16.40;99.90;;;;;;5026637;28;20413;-75
2022/08/08 06:31:05;;;;;;;9.98;4.57;;;16.50;99.90;;;;;;5026815;28;20431;-74
2022/08/08 06:33:54;;;;;;;8.25;4.30;;;16.60;99.90;;;;;;5025078;28;20503;-74
2022/08/08 06:36:30;;;;;;;11.18;5.00;;;16.60;99.90;;;;;;5021812;28;20368;-74
2022/08/08 06:38:59;;;;;;;11.38;4.82;;;16.70;99.90;;;;;;5024735;28;20500;-75
2022/08/08 06:41:26;;;;;;;10.93;5.68;;;16.70;99.90;;;;;;5007789;28;20048;-76
2022/08/08 06:43:56;;;;;;;9.48;4.78;;;16.60;99.90;;;;;;5025309;28;20052;-74
2022/08/08 06:46:22;;;;;;;11.73;5.05;;;16.60;99.90;;;;;;5030456;28;20142;-75
2022/08/08 06:48:49;;;;;;;11.00;4.72;;;16.70;99.90;;;;;;5026735;28;20045;-76
2022/08/08 06:51:16;;;;;;;9.45;4.55;;;16.70;99.90;;;;;;5042291;28;20468;-75
2022/08/08 06:53:41;;;;;;;9.45;5.10;;;16.70;99.90;;;;;;5035494;28;20138;-74
2022/08/08 06:56:07;;;;;;;12.13;5.00;;;16.70;99.90;;;;;;5035569;28;20090;-74
2022/08/08 06:58:34;;;;;;;10.23;4.32;;;16.80;99.90;;;;;;5037360;28;20040;-74
2022/08/08 07:01:03;;;;;;;12.30;5.03;;;16.80;99.90;;;;;;5040543;28;20049;-73
2022/08/08 07:03:41;;;;;;;8.90;4.53;;;16.90;99.90;;;;;;5039854;28;20038;-74
2022/08/08 07:06:09;;;;;;;8.50;4.28;;;17.00;99.90;;;;;;5023972;28;20057;-74
2022/08/08 07:08:42;;;;;;;9.20;4.10;;;17.00;99.90;;;;;;5044592;28;20198;-74
2022/08/08 07:11:10;;;;;;;11.20;4.22;;;17.10;99.90;;;;;;5039914;28;20056;-73
2022/08/08 07:13:38;;;;;;;10.68;4.35;;;17.10;99.90;;;;;;5039977;28;20053;-74
2022/08/08 07:16:19;;;;;;;8.90;3.60;;;17.20;99.90;;;;;;5022482;28;20127;-74
2022/08/08 07:19:21;;;;;;;8.50;3.45;;;17.20;99.90;;;;;;5041518;28;20432;-74
2022/08/08 07:21:54;;;;;;;7.63;3.60;;;17.40;99.90;;;;;;5039512;28;20489;-74
2022/08/08 07:24:39;;;;;;;8.75;3.47;;;17.50;99.90;;;;;;5039825;28;21094;-74
2022/08/08 07:27:05;;;;;;;11.68;3.30;;;17.80;99.90;;;;;;5042769;28;20071;-73
2022/08/08 07:29:34;;;;;;;7.75;2.88;;;18.00;99.90;;;;;;5025589;28;20516;-73
2022/08/08 07:32:02;;;;;;;7.38;2.53;;;18.30;99.90;;;;;;5032695;28;20521;-74
2022/08/08 07:34:32;;;;;;;11.13;2.10;;;18.60;99.90;;;;;;5035817;28;20044;-73
2022/08/08 07:37:00;;;;;;;7.32;2.10;;;19.10;99.90;;;;;;5021985;28;20644;-73
2022/08/08 07:39:29;;;;;;;5.35;1.75;;;19.40;99.90;;;;;;5041017;28;20102;-73
2022/08/08 07:41:55;;;;;;;5.93;1.60;;;19.90;99.90;;;;;;5039504;28;20087;-74
2022/08/08 07:44:23;;;;;;;2.33;1.10;;;20.20;99.90;;;;;;5037812;28;20133;-71
2022/08/08 07:46:49;;;;;;;5.68;1.20;;;20.60;99.90;;;;;;5039564;28;20092;-72
2022/08/08 07:49:15;;;;;;;3.25;1.10;;;21.00;99.90;;;;;;5037798;28;20418;-72
2022/08/08 07:51:41;;;;;;;4.28;1.40;;;21.70;99.90;;;;;;5035652;28;20048;-73
2022/08/08 07:54:13;;;;;;;5.82;1.63;;;22.50;99.90;;;;;;5039860;28;20402;-72
2022/08/08 07:57:01;;;;;;;7.30;1.85;;;23.40;99.90;;;;;;5040913;28;20053;-73
2022/08/08 07:59:36;;;;;;;5.38;1.80;;;23.90;99.90;;;;;;5037607;28;20430;-73
2022/08/08 08:02:06;;;;;;;5.68;1.60;;;24.20;99.90;;;;;;5031284;28;20099;-73
2022/08/08 08:04:34;;;;;;;3.43;1.17;;;24.30;99.90;;;;;;5026614;28;20132;-74
2022/08/08 08:07:01;;;;;;;5.47;1.30;;;24.30;99.90;;;;;;5020126;28;20136;-74
2022/08/08 08:09:36;;;;;;;3.85;1.35;;;24.10;99.90;;;;;;5037727;28;20051;-74
2022/08/08 08:12:03;;;;;;;4.63;1.63;;;23.90;99.90;;;;;;5037330;28;20065;-73
2022/08/08 08:14:40;;;;;;;9.15;1.48;;;23.60;99.90;;;;;;5025533;28;20405;-73
2022/08/08 08:17:08;;;;;;;4.28;1.10;;;23.30;99.90;;;;;;5021952;28;20148;-72
2022/08/08 08:19:36;;;;;;;3.97;1.08;;;22.90;99.90;;;;;;5037604;28;20130;-73
2022/08/08 08:22:02;;;;;;;3.88;1.10;;;22.50;99.90;;;;;;5040459;28;20111;-72
2022/08/08 08:24:28;;;;;;;6.75;1.23;;;22.30;99.90;;;;;;5038073;28;20048;-73
2022/08/08 08:26:54;;;;;;;6.30;1.20;;;22.10;99.90;;;;;;5033490;28;20049;-73
2022/08/08 08:29:19;;;;;;;6.75;1.20;;;21.90;99.90;;;;;;5034597;28;20052;-72
2022/08/08 08:31:45;;;;;;;5.22;1.00;;;21.90;99.90;;;;;;5020160;28;20033;-73
2022/08/08 08:34:11;;;;;;;6.00;1.00;;;22.00;99.90;;;;;;5030865;28;20087;-72
2022/08/08 08:36:37;;;;;;;4.10;1.20;;;22.00;99.90;;;;;;5032735;28;20494;-73
2022/08/08 08:39:03;;;;;;;7.28;1.08;;;22.00;99.90;;;;;;5033327;28;20041;-72
2022/08/08 08:41:31;;;;;;;5.50;1.10;;;22.10;99.90;;;;;;5020323;28;20436;-72
2022/08/08 08:43:57;;;;;;;3.38;1.10;;;22.20;99.90;;;;;;5044606;28;20580;-73
2022/08/08 08:46:24;;;;;;;5.13;1.15;;;22.20;99.90;;;;;;5038538;28;20547;-75
2022/08/08 08:48:51;;;;;;;3.85;1.00;;;22.40;99.90;;;;;;5039837;28;20076;-72
2022/08/08 08:51:17;;;;;;;3.35;1.20;;;22.50;99.90;;;;;;5040247;28;20047;-72
2022/08/08 08:53:50;;;;;;;7.72;1.25;;;22.60;99.90;;;;;;5034144;28;20041;-73
2022/08/08 08:56:18;;;;;;;5.13;1.15;;;22.70;99.90;;;;;;5041462;28;20045;-73
2022/08/08 08:58:47;;;;;;;7.70;1.73;;;22.70;99.90;;;;;;5018815;28;20147;-74
2022/08/08 09:01:18;;;;;;;7.28;1.30;;;22.80;99.90;;;;;;5036144;28;20274;-74
2022/08/08 09:03:47;;;;;;;3.97;1.10;;;22.70;99.90;;;;;;5034086;28;20049;-71
2022/08/08 09:06:16;;;;;;;3.97;1.08;;;22.60;99.90;;;;;;5031707;28;20039;-73
2022/08/08 09:08:45;;;;;;;5.72;1.23;;;22.60;99.90;;;;;;5027357;28;20040;-74
2022/08/08 09:11:13;;;;;;;5.32;1.30;;;22.40;99.90;;;;;;5030419;28;20124;-74
2022/08/08 09:13:41;;;;;;;5.30;1.08;;;22.30;99.90;;;;;;5031505;28;20162;-74
2022/08/08 09:16:07;;;;;;;5.63;1.30;;;22.30;99.90;;;;;;5031655;28;20049;-74
2022/08/08 09:18:33;;;;;;;4.55;1.48;;;22.30;99.90;;;;;;5036189;28;20103;-74
2022/08/08 09:21:01;;;;;;;4.32;1.10;;;22.20;99.90;;;;;;5039475;28;20048;-73
2022/08/08 09:23:31;;;;;;;3.28;0.90;;;22.10;99.90;;;;;;5042345;28;20045;-73
2022/08/08 09:26:16;;;;;;;3.70;1.15;;;22.00;99.90;;;;;;5019479;28;20052;-74
2022/08/08 09:28:43;;;;;;;6.82;1.05;;;22.00;99.90;;;;;;5032463;28;20773;-74
2022/08/08 09:31:28;;;;;;;3.75;0.90;;;22.00;99.90;;;;;;5032649;28;20098;-73
2022/08/08 09:33:56;;;;;;;5.68;1.23;;;22.00;99.90;;;;;;5036546;28;20525;-74
2022/08/08 09:36:22;;;;;;;3.53;1.00;;;22.00;99.90;;;;;;5031621;28;20537;-72
2022/08/08 09:38:59;;;;;;;4.35;0.98;;;21.90;99.90;;;;;;5015850;28;20044;-72
2022/08/08 09:41:38;;;;;;;6.20;0.82;;;21.90;99.90;;;;;;5030281;28;20170;-73
2022/08/08 09:44:20;;;;;;;6.00;1.88;;;21.90;99.90;;;;;;5036466;28;20132;-73
2022/08/08 09:46:50;;;;;;;3.30;0.98;;;21.90;99.90;;;;;;5028908;28;20120;-74
2022/08/08 09:49:19;;;;;;;3.50;0.90;;;21.90;99.90;;;;;;5024634;28;20049;-73
2022/08/08 09:51:52;;;;;;;2.70;0.90;;;22.00;99.90;;;;;;5027414;28;20115;-72
2022/08/08 09:54:20;;;;;;;4.43;1.02;;;22.00;99.90;;;;;;5031277;28;20120;-73
2022/08/08 09:56:54;;;;;;;3.42;0.80;;;22.00;99.90;;;;;;5031053;28;20052;-72
2022/08/08 09:59:31;;;;;;;8.98;1.00;;;22.10;99.90;;;;;;5039201;28;20115;-72
2022/08/08 10:02:03;;;;;;;15.32;1.10;;;22.10;99.90;;;;;;5026400;28;20049;-70
2022/08/08 10:04:30;;;;;;;4.68;1.20;;;22.20;99.90;;;;;;5026809;28;20186;-71
2022/08/08 10:06:56;;;;;;;2.65;0.73;;;22.20;99.90;;;;;;5024399;28;20049;-70
2022/08/08 10:09:32;;;;;;;4.18;0.80;;;22.20;99.90;;;;;;5025354;28;20041;-71
2022/08/08 10:12:02;;;;;;;3.25;0.77;;;22.20;99.90;;;;;;5014571;28;20267;-70
2022/08/08 10:14:36;;;;;;;4.53;1.13;;;22.10;99.90;;;;;;5025929;28;20057;-70
2022/08/08 10:17:08;;;;;;;3.78;1.00;;;22.10;99.90;;;;;;5022731;28;20103;-71
2022/08/08 10:19:39;;;;;;;5.35;1.42;;;22.10;99.90;;;;;;5022153;28;20199;-72
2022/08/08 10:22:05;;;;;;;;;;;22.20;99.90;;;;;;5025377;28;21607;-70
2022/08/08 10:24:35;;;;;;;4.15;1.00;;;22.20;99.90;;;;;;5009967;28;19924;-70
2022/08/08 10:27:05;;;;;;;3.72;0.90;;;22.10;99.90;;;;;;5022795;28;20045;-70
2022/08/08 10:29:45;;;;;;;6.25;1.17;;;22.00;99.90;;;;;;5004008;28;20045;-71
2022/08/08 10:32:35;;;;;;;2.90;0.85;;;22.00;99.90;;;;;;5023835;28;20312;-72
2022/08/08 10:35:13;;;;;;;3.00;0.90;;;22.00;99.90;;;;;;5022119;28;20108;-71
2022/08/08 10:37:58;;;;;;;4.90;1.45;;;22.10;99.90;;;;;;5026389;28;20279;-69
2022/08/08 10:40:25;;;;;;;4.63;0.95;;;22.20;99.90;;;;;;5012917;28;20394;-72
2022/08/08 10:43:05;;;;;;;5.68;1.20;;;22.20;99.90;;;;;;5034520;28;20049;-71
2022/08/08 10:45:42;;;;;;;7.07;1.10;;;22.10;99.90;;;;;;5028689;28;20053;-72
2022/08/08 10:48:10;;;;;;;3.97;1.00;;;22.00;99.90;;;;;;5025755;28;21270;-71
2022/08/08 10:50:37;;;;;;;2.55;0.82;;;21.90;99.90;;;;;;5016129;28;20037;-71
2022/08/08 10:53:05;;;;;;;3.75;1.00;;;21.90;99.90;;;;;;5032509;28;20055;-70
2022/08/08 10:55:32;;;;;;;4.78;1.00;;;21.90;99.90;;;;;;5025731;28;20049;-71
2022/08/08 10:58:04;;;;;;;3.95;1.27;;;21.90;99.90;;;;;;5025458;28;20390;-71
2022/08/08 11:00:30;;;;;;;6.72;1.20;;;21.90;99.90;;;;;;5026016;28;20040;-70
2022/08/08 11:02:57;;;;;;;2.40;0.75;;;21.90;99.90;;;;;;5023646;28;20067;-72
2022/08/08 11:05:26;;;;;;;2.50;0.75;;;21.90;99.90;;;;;;5024970;28;20041;-71
2022/08/08 11:07:56;;;;;;;4.90;1.30;;;22.00;99.90;;;;;;5028083;28;20053;-71
2022/08/08 11:10:23;;;;;;;3.65;0.80;;;22.00;99.90;;;;;;5024915;28;20410;-72
2022/08/08 11:12:54;;;;;;;3.58;0.80;;;22.00;99.90;;;;;;5023776;28;20124;-72
2022/08/08 11:15:21;;;;;;;;;;;22.10;99.90;;;;;;5026042;28;20052;-71
2022/08/08 11:17:48;;;;;;;4.82;1.08;;;22.30;99.90;;;;;;5029329;28;19976;-72
2022/08/08 11:20:26;;;;;;;4.18;0.90;;;22.40;99.90;;;;;;5027014;28;20052;-72
2022/08/08 11:22:57;;;;;;;4.60;1.15;;;22.60;99.90;;;;;;5028378;28;20148;-73
2022/08/08 11:25:28;;;;;;;2.90;0.82;;;22.80;99.90;;;;;;5030256;28;20041;-71
2022/08/08 11:27:55;;;;;;;7.80;1.00;;;23.00;99.90;;;;;;5044125;28;20049;-72
2022/08/08 11:30:22;;;;;;;4.80;0.85;;;23.20;99.90;;;;;;5026672;28;20049;-72
2022/08/08 11:32:52;;;;;;;6.25;1.17;;;23.30;99.90;;;;;;5008265;28;20069;-72
2022/08/08 11:35:19;;;;;;;6.57;0.88;;;23.40;99.90;;;;;;5026103;28;20048;-71
2022/08/08 11:37:45;;;;;;;6.93;1.10;;;23.50;99.90;;;;;;5019254;28;20083;-71
2022/08/08 11:40:12;;;;;;;3.30;0.88;;;23.60;99.90;;;;;;5024308;28;20878;-71
2022/08/08 11:42:39;;;;;;;4.95;0.85;;;23.70;99.90;;;;;;5023877;28;20394;-72
2022/08/08 11:45:07;;;;;;;3.92;0.75;;;23.70;99.90;;;;;;5028709;28;20049;-72
2022/08/08 11:47:35;;;;;;;5.78;0.98;;;23.60;99.90;;;;;;5007989;28;20132;-71
2022/08/08 11:50:19;;;;;;;4.28;0.90;;;23.60;99.90;;;;;;5027365;28;20533;-71
2022/08/08 11:52:46;;;;;;;5.13;0.90;;;23.60;99.90;;;;;;5043591;28;20052;-71
2022/08/08 11:55:21;;;;;;;3.72;0.88;;;23.70;99.90;;;;;;5028648;28;20111;-71
2022/08/08 11:57:47;;;;;;;3.97;1.13;;;24.00;99.90;;;;;;5029998;28;20044;-70
2022/08/08 12:00:17;;;;;;;3.35;0.80;;;24.20;99.90;;;;;;5024571;28;20096;-72
2022/08/08 12:02:54;;;;;;;2.63;0.98;;;24.20;99.90;;;;;;5012388;28;20406;-71
2022/08/08 12:05:33;;;;;;;4.55;1.20;;;24.30;99.90;;;;;;5025038;28;20049;-71
2022/08/08 12:07:59;;;;;;;3.92;1.05;;;24.20;99.90;;;;;;5042180;28;20512;-71
2022/08/08 12:10:27;;;;;;;3.90;1.05;;;24.00;99.90;;;;;;5028170;28;20041;-71
2022/08/08 12:13:14;;;;;;;3.97;0.95;;;23.80;99.90;;;;;;5029062;28;20065;-72
2022/08/08 12:15:47;;;;;;;4.07;1.15;;;23.60;99.90;;;;;;5036628;28;20033;-71
2022/08/08 12:18:17;;;;;;;4.13;0.82;;;23.50;99.90;;;;;;5033163;28;20057;-71
2022/08/08 12:20:43;;;;;;;4.65;0.88;;;23.40;99.90;;;;;;5039650;28;20044;-71
2022/08/08 12:23:09;;;;;;;3.28;0.80;;;23.40;99.90;;;;;;5028245;28;20099;-72
2022/08/08 12:25:35;;;;;;;3.63;1.20;;;23.20;99.90;;;;;;5017418;28;20042;-71
2022/08/08 12:28:13;;;;;;;5.82;0.98;;;23.10;99.90;;;;;;5028621;28;20045;-72
2022/08/08 12:30:39;;;;;;;2.25;0.75;;;23.10;99.90;;;;;;5017807;28;20186;-72
2022/08/08 12:33:24;;;;;;;2.58;0.77;;;23.10;99.90;;;;;;5032613;28;20132;-69
2022/08/08 12:35:50;;;;;;;3.30;0.73;;;23.20;99.90;;;;;;5026938;28;20041;-71
2022/08/08 12:38:16;;;;;;;3.30;0.77;;;23.30;99.90;;;;;;5041259;28;20036;-71
2022/08/08 12:40:51;;;;;;;3.70;0.80;;;23.60;99.90;;;;;;5040518;28;20497;-71
2022/08/08 12:43:27;;;;;;;3.00;0.70;;;23.70;99.90;;;;;;5026818;28;20044;-71
2022/08/08 12:45:53;;;;;;;6.20;1.00;;;23.70;99.90;;;;;;5043564;28;20052;-70
2022/08/08 12:48:24;;;;;;;5.43;1.00;;;23.70;99.90;;;;;;5033329;28;20410;-71
2022/08/08 12:50:55;;;;;;;4.72;0.75;;;23.70;99.90;;;;;;5036338;28;20046;-71
2022/08/08 12:53:23;;;;;;;;;;;23.70;99.90;;;;;;5040369;28;20041;-71
2022/08/08 12:55:53;;;;;;;5.63;1.17;;;23.50;99.90;;;;;;5020209;28;20281;-71
2022/08/08 12:58:19;;;;;;;3.72;0.90;;;23.40;99.90;;;;;;5016033;28;20042;-71
2022/08/08 13:00:44;;;;;;;5.88;1.10;;;23.30;99.90;;;;;;5035289;28;20117;-71
2022/08/08 13:03:25;;;;;;;4.10;1.00;;;23.20;99.90;;;;;;5032706;28;20502;-70
2022/08/08 13:06:11;;;;;;;4.07;0.88;;;23.20;99.90;;;;;;5033965;28;20053;-71
2022/08/08 13:08:40;;;;;;;4.53;1.02;;;23.10;99.90;;;;;;5035076;28;20079;-72
2022/08/08 13:11:22;;;;;;;3.75;0.80;;;23.10;99.90;;;;;;5036702;28;20142;-71
2022/08/08 13:14:13;;;;;;;4.22;0.80;;;23.00;99.90;;;;;;5037139;28;20045;-71
2022/08/08 13:16:39;;;;;;;;;;;23.00;99.90;;;;;;5034455;28;20041;-69
2022/08/08 13:19:07;;;;;;;3.10;0.70;;;23.00;99.90;;;;;;5035460;28;19947;-70
2022/08/08 13:21:44;;;;;;;5.53;1.10;;;23.10;99.90;;;;;;5038635;28;20045;-72
2022/08/08 13:24:11;;;;;;;3.83;0.82;;;23.10;99.90;;;;;;5041303;28;20393;-71
2022/08/08 13:26:36;;;;;;;6.35;1.70;;;23.20;99.90;;;;;;5042265;28;20080;-71